Time;durP1;ratioP1;P1;durP2;ratioP2;P2;SDS_P1;SDS_P2;PMS_P1;PMS_P2;Temp;Humidity;BMP_temperature;BMP_pressure;BME280_temperature;BME280_humidity;BME280_pressure;Samples;Min_cycle;Max_cycle;Signal;HPM_P1;HPM_P2
2022/05/12 00:00:59;;;;;;;7.05;3.33;;;;;;;;;;5137685;27;20190;-44
2022/05/12 00:03:25;;;;;;;5.00;3.03;;;;;;;;;;5137867;27;20464;-42
2022/05/12 00:05:50;;;;;;;5.32;3.03;;;;;;;;;;5135114;27;20425;-44
2022/05/12 00:08:15;;;;;;;6.97;2.65;;;;;;;;;;5137045;27;20532;-46
2022/05/12 00:10:42;;;;;;;3.97;2.20;;;;;;;;;;5137739;27;20455;-43
2022/05/12 00:13:07;;;;;;;4.13;2.53;;;;;;;;;;5139368;27;20566;-42
2022/05/12 00:15:33;;;;;;;6.00;3.10;;;;;;;;;;5138666;27;20165;-43
2022/05/12 00:18:02;;;;;;;5.30;3.35;;;;;;;;;;5139712;27;20047;-45
2022/05/12 00:20:27;;;;;;;4.60;2.55;;;;;;;;;;5137951;27;20107;-46
2022/05/12 00:23:05;;;;;;;25.77;3.80;;;;;;;;;;5136230;27;20134;-44
2022/05/12 00:25:30;;;;;;;4.70;2.53;;;;;;;;;;5141797;27;20030;-42
2022/05/12 00:27:55;;;;;;;5.25;3.08;;;;;;;;;;5136548;27;20524;-45
2022/05/12 00:30:21;;;;;;;3.88;2.15;;;;;;;;;;5137965;27;20056;-47
2022/05/12 00:32:46;;;;;;;4.72;3.08;;;;;;;;;;5141260;27;20026;-41
2022/05/12 00:35:13;;;;;;;19.15;4.22;;;;;;;;;;5138618;27;20534;-46
2022/05/12 00:37:38;;;;;;;3.70;2.90;;;;;;;;;;5140489;27;20046;-45
2022/05/12 00:40:04;;;;;;;4.78;2.88;;;;;;;;;;5141129;27;20051;-43
2022/05/12 00:42:30;;;;;;;7.57;2.10;;;;;;;;;;5142460;27;20533;-49
2022/05/12 00:44:55;;;;;;;6.28;3.63;;;;;;;;;;5140970;27;20083;-45
2022/05/12 00:47:20;;;;;;;5.10;3.58;;;;;;;;;;5139510;27;20034;-46
2022/05/12 00:49:47;;;;;;;3.42;2.28;;;;;;;;;;5140798;27;20047;-46
2022/05/12 00:52:18;;;;;;;4.47;3.10;;;;;;;;;;5140903;27;20049;-43
2022/05/12 00:54:51;;;;;;;13.95;3.72;;;;;;;;;;5138291;27;20045;-41
2022/05/12 00:57:20;;;;;;;16.38;3.65;;;;;;;;;;5142002;27;20138;-48
2022/05/12 00:59:46;;;;;;;6.40;4.00;;;;;;;;;;5141658;27;20400;-43
2022/05/12 01:02:17;;;;;;;3.53;3.13;;;;;;;;;;5142849;27;20038;-42
2022/05/12 01:04:42;;;;;;;;;;;;;;;;;;5141577;27;20062;-45
2022/05/12 01:07:08;;;;;;;6.10;3.80;;;;;;;;;;5141487;27;19915;-47
2022/05/12 01:09:33;;;;;;;4.05;3.05;;;;;;;;;;5141044;27;20051;-43
2022/05/12 01:11:59;;;;;;;4.55;2.95;;;;;;;;;;5141772;27;20043;-45
2022/05/12 01:14:25;;;;;;;9.63;2.50;;;;;;;;;;5142030;27;20515;-44
2022/05/12 01:16:52;;;;;;;11.70;3.30;;;;;;;;;;5141404;27;20073;-43
2022/05/12 01:19:19;;;;;;;10.63;3.50;;;;;;;;;;5140596;27;20043;-41
2022/05/12 01:21:48;;;;;;;7.78;2.95;;;;;;;;;;5143270;27;20075;-41
2022/05/12 01:24:14;;;;;;;5.03;2.63;;;;;;;;;;5139009;27;20062;-40
2022/05/12 01:26:40;;;;;;;9.15;2.60;;;;;;;;;;5144625;27;20058;-44
2022/05/12 01:29:05;;;;;;;6.05;2.65;;;;;;;;;;5143302;27;20039;-43
2022/05/12 01:31:31;;;;;;;3.42;2.67;;;;;;;;;;5141404;27;20046;-47
2022/05/12 01:33:56;;;;;;;9.05;2.35;;;;;;;;;;5140177;27;20423;-46
2022/05/12 01:36:22;;;;;;;6.68;2.90;;;;;;;;;;5141843;27;20067;-45
2022/05/12 01:38:48;;;;;;;6.60;2.17;;;;;;;;;;5141909;27;20040;-41
2022/05/12 01:41:14;;;;;;;14.98;3.30;;;;;;;;;;5139906;27;20102;-43
2022/05/12 01:43:39;;;;;;;12.43;2.78;;;;;;;;;;5143896;27;20565;-40
2022/05/12 01:46:04;;;;;;;13.38;2.78;;;;;;;;;;5139740;27;20447;-47
2022/05/12 01:48:29;;;;;;;3.67;2.83;;;;;;;;;;5138483;27;20061;-43
2022/05/12 01:50:55;;;;;;;5.35;2.78;;;;;;;;;;5138403;27;20499;-45
2022/05/12 01:53:20;;;;;;;10.93;2.80;;;;;;;;;;5140899;27;20043;-43
2022/05/12 01:55:48;;;;;;;3.53;2.60;;;;;;;;;;5141067;27;20042;-42
2022/05/12 01:58:14;;;;;;;5.90;3.20;;;;;;;;;;5142333;27;20046;-43
2022/05/12 02:00:39;;;;;;;8.88;3.53;;;;;;;;;;5140329;27;20034;-46
2022/05/12 02:03:05;;;;;;;8.43;4.05;;;;;;;;;;5140613;27;20179;-45
2022/05/12 02:05:32;;;;;;;3.25;2.95;;;;;;;;;;5141320;27;20042;-46
2022/05/12 02:07:58;;;;;;;6.35;3.95;;;;;;;;;;5140712;27;20099;-46
2022/05/12 02:10:24;;;;;;;7.30;3.72;;;;;;;;;;5142857;27;20038;-45
2022/05/12 02:12:50;;;;;;;7.65;2.90;;;;;;;;;;5141623;27;20078;-45
2022/05/12 02:15:15;;;;;;;6.60;3.72;;;;;;;;;;5138532;27;20118;-44
2022/05/12 02:17:40;;;;;;;6.00;3.70;;;;;;;;;;5139116;27;20068;-45
2022/05/12 02:20:06;;;;;;;5.35;3.42;;;;;;;;;;5138725;27;20046;-46
2022/05/12 02:22:32;;;;;;;5.13;2.50;;;;;;;;;;5136939;27;20038;-43
2022/05/12 02:24:57;;;;;;;6.05;2.67;;;;;;;;;;5139133;27;20417;-44
2022/05/12 02:27:23;;;;;;;11.23;4.28;;;;;;;;;;5124549;27;20558;-48
2022/05/12 02:29:48;;;;;;;13.70;2.45;;;;;;;;;;5139691;27;20570;-45
2022/05/12 02:32:13;;;;;;;5.80;2.75;;;;;;;;;;5139964;27;20030;-44
2022/05/12 02:34:39;;;;;;;3.45;2.40;;;;;;;;;;5140413;27;20563;-44
2022/05/12 02:37:05;;;;;;;7.30;2.60;;;;;;;;;;5136519;27;20432;-43
2022/05/12 02:39:32;;;;;;;4.43;2.78;;;;;;;;;;5139137;27;20043;-47
2022/05/12 02:41:59;;;;;;;12.13;3.58;;;;;;;;;;5138920;27;20478;-48
2022/05/12 02:44:25;;;;;;;14.43;4.32;;;;;;;;;;5140080;27;20764;-47
2022/05/12 02:46:50;;;;;;;9.38;2.97;;;;;;;;;;5139554;27;20042;-43
2022/05/12 02:49:15;;;;;;;6.35;3.28;;;;;;;;;;5136593;27;20152;-46
2022/05/12 02:51:43;;;;;;;13.77;3.10;;;;;;;;;;5140023;27;20582;-44
2022/05/12 02:54:09;;;;;;;11.48;4.63;;;;;;;;;;5140336;27;20042;-43
2022/05/12 02:56:34;;;;;;;7.43;2.78;;;;;;;;;;5140737;27;20061;-44
2022/05/12 02:59:00;;;;;;;6.18;2.88;;;;;;;;;;5139653;27;20713;-47
2022/05/12 03:01:25;;;;;;;6.28;3.17;;;;;;;;;;5135999;27;20807;-44
2022/05/12 03:03:50;;;;;;;7.93;2.30;;;;;;;;;;5138394;27;20058;-44
2022/05/12 03:06:16;;;;;;;11.45;1.77;;;;;;;;;;5141479;27;20418;-43
2022/05/12 03:08:43;;;;;;;8.38;1.92;;;;;;;;;;5137944;27;20515;-42
2022/05/12 03:11:09;;;;;;;4.88;2.70;;;;;;;;;;5140119;27;20113;-45
2022/05/12 03:13:34;;;;;;;13.35;3.42;;;;;;;;;;5139234;27;20125;-42
2022/05/12 03:16:00;;;;;;;8.98;1.83;;;;;;;;;;5139499;27;20043;-44
2022/05/12 03:18:25;;;;;;;3.60;1.95;;;;;;;;;;5138626;27;20053;-43
2022/05/12 03:20:51;;;;;;;7.05;3.35;;;;;;;;;;5139197;27;20065;-46
2022/05/12 03:23:17;;;;;;;5.32;1.98;;;;;;;;;;5140720;27;20099;-45
2022/05/12 03:25:45;;;;;;;4.30;1.95;;;;;;;;;;5138812;27;20043;-49
2022/05/12 03:28:11;;;;;;;4.05;2.47;;;;;;;;;;5139383;27;20130;-43
2022/05/12 03:30:36;;;;;;;2.92;1.67;;;;;;;;;;5138061;27;20167;-47
2022/05/12 03:33:02;;;;;;;2.35;1.50;;;;;;;;;;5137679;27;20136;-45
2022/05/12 03:35:28;;;;;;;5.35;2.35;;;;;;;;;;5139037;27;20098;-48
2022/05/12 03:37:54;;;;;;;6.18;1.80;;;;;;;;;;5138573;27;20066;-43
2022/05/12 03:40:19;;;;;;;5.97;2.08;;;;;;;;;;5139499;27;20074;-43
2022/05/12 03:42:45;;;;;;;4.30;2.90;;;;;;;;;;5138421;27;20185;-46
2022/05/12 03:45:11;;;;;;;3.35;2.60;;;;;;;;;;5138865;27;20467;-45
2022/05/12 03:47:38;;;;;;;5.35;1.95;;;;;;;;;;5139362;27;20399;-44
2022/05/12 03:50:06;;;;;;;2.55;1.75;;;;;;;;;;5139017;27;20039;-43
2022/05/12 03:52:32;;;;;;;6.13;2.42;;;;;;;;;;5138975;27;20450;-42
2022/05/12 03:54:57;;;;;;;5.57;1.85;;;;;;;;;;5138668;27;20047;-44
2022/05/12 03:57:24;;;;;;;9.43;2.33;;;;;;;;;;5136472;27;20489;-42
2022/05/12 03:59:50;;;;;;;3.13;1.98;;;;;;;;;;5134908;27;20039;-46
2022/05/12 04:02:16;;;;;;;7.45;2.47;;;;;;;;;;5139647;27;20034;-43
2022/05/12 04:04:42;;;;;;;9.18;3.40;;;;;;;;;;5135648;27;20249;-43
2022/05/12 04:07:09;;;;;;;5.65;3.50;;;;;;;;;;5137616;27;20046;-42
2022/05/12 04:09:35;;;;;;;13.82;3.00;;;;;;;;;;5136149;27;20054;-47
2022/05/12 04:12:00;;;;;;;20.55;3.97;;;;;;;;;;5138437;27;20054;-46
2022/05/12 04:14:25;;;;;;;13.57;4.55;;;;;;;;;;5136301;27;20038;-47
2022/05/12 04:16:51;;;;;;;5.25;2.28;;;;;;;;;;5139618;27;20553;-43
2022/05/12 04:19:16;;;;;;;16.58;7.50;;;;;;;;;;5139094;27;20050;-44
2022/05/12 04:21:42;;;;;;;20.10;3.50;;;;;;;;;;5141069;27;20039;-46
2022/05/12 04:24:08;;;;;;;13.63;2.58;;;;;;;;;;5136160;27;20082;-46
2022/05/12 04:26:34;;;;;;;8.85;3.67;;;;;;;;;;5137565;27;20219;-44
2022/05/12 04:29:00;;;;;;;3.90;2.45;;;;;;;;;;5138956;27;20541;-46
2022/05/12 04:31:25;;;;;;;7.07;3.22;;;;;;;;;;5135949;27;20043;-41
2022/05/12 04:36:36;;;;;;;5.57;2.60;;;;;;;;;;5124547;27;20066;-45
2022/05/12 04:39:03;;;;;;;4.30;3.03;;;;;;;;;;5134371;27;20035;-44
2022/05/12 04:41:28;;;;;;;11.68;3.95;;;;;;;;;;5118175;27;20039;-49
2022/05/12 04:43:54;;;;;;;3.30;2.47;;;;;;;;;;5137729;27;20540;-48
2022/05/12 04:46:20;;;;;;;5.28;2.95;;;;;;;;;;5140113;27;20710;-46
2022/05/12 04:48:45;;;;;;;5.63;3.15;;;;;;;;;;5135054;27;20039;-47
2022/05/12 04:51:10;;;;;;;17.73;3.92;;;;;;;;;;5139483;27;20102;-47
2022/05/12 04:53:36;;;;;;;3.53;2.42;;;;;;;;;;5138149;27;20107;-44
2022/05/12 04:56:01;;;;;;;4.65;2.45;;;;;;;;;;5138932;27;20043;-49
2022/05/12 04:58:26;;;;;;;11.52;3.08;;;;;;;;;;5137790;27;20093;-46
2022/05/12 05:00:52;;;;;;;3.80;2.45;;;;;;;;;;5136465;27;20546;-42
2022/05/12 05:03:17;;;;;;;4.82;2.95;;;;;;;;;;5137250;27;20711;-44
2022/05/12 05:05:44;;;;;;;7.78;4.05;;;;;;;;;;5138206;27;20042;-46
2022/05/12 05:08:11;;;;;;;5.07;2.67;;;;;;;;;;5137624;27;20506;-47
2022/05/12 05:10:37;;;;;;;15.07;4.55;;;;;;;;;;5136760;27;20043;-48
2022/05/12 05:13:02;;;;;;;5.82;2.80;;;;;;;;;;5135521;27;20035;-49
2022/05/12 05:15:27;;;;;;;14.65;3.95;;;;;;;;;;5135319;27;20039;-49
2022/05/12 05:17:53;;;;;;;4.40;2.92;;;;;;;;;;5135377;27;20038;-48
2022/05/12 05:20:20;;;;;;;10.18;6.35;;;;;;;;;;5138002;27;20041;-48
2022/05/12 05:22:46;;;;;;;27.13;15.10;;;;;;;;;;5141899;27;20271;-45
2022/05/12 05:25:11;;;;;;;35.72;18.38;;;;;;;;;;5142585;27;20554;-41
2022/05/12 05:27:37;;;;;;;20.75;13.65;;;;;;;;;;5141806;27;20039;-42
2022/05/12 05:30:04;;;;;;;15.20;11.80;;;;;;;;;;5141261;27;20039;-43
2022/05/12 05:32:30;;;;;;;17.13;11.85;;;;;;;;;;5139467;27;20078;-47
2022/05/12 05:34:55;;;;;;;18.73;9.73;;;;;;;;;;5138569;27;20058;-43
2022/05/12 05:37:20;;;;;;;14.18;7.80;;;;;;;;;;5139879;27;20582;-42
2022/05/12 05:39:46;;;;;;;12.60;7.70;;;;;;;;;;5141646;27;20077;-42
2022/05/12 05:42:13;;;;;;;8.27;6.07;;;;;;;;;;5142532;27;20034;-43
2022/05/12 05:44:38;;;;;;;14.23;5.60;;;;;;;;;;5135943;27;20057;-44
2022/05/12 05:47:04;;;;;;;14.98;6.40;;;;;;;;;;5140417;27;20030;-46
2022/05/12 05:49:30;;;;;;;27.80;7.18;;;;;;;;;;5139766;27;20038;-48
2022/05/12 05:54:39;;;;;;;35.85;8.48;;;;;;;;;;5140536;27;20074;-44
2022/05/12 05:57:04;;;;;;;10.10;6.10;;;;;;;;;;5138359;27;20494;-43
2022/05/12 05:59:30;;;;;;;16.92;6.07;;;;;;;;;;5143604;27;20043;-47
2022/05/12 06:01:56;;;;;;;22.05;6.20;;;;;;;;;;5144609;27;20506;-46
2022/05/12 06:04:21;;;;;;;4.40;3.40;;;;;;;;;;5141528;27;20039;-44
2022/05/12 06:06:47;;;;;;;6.70;4.78;;;;;;;;;;5142833;27;20046;-42
2022/05/12 06:09:12;;;;;;;8.80;4.20;;;;;;;;;;5137319;27;20467;-44
2022/05/12 06:11:38;;;;;;;7.90;4.47;;;;;;;;;;5140019;27;20422;-46
2022/05/12 06:14:03;;;;;;;10.23;6.00;;;;;;;;;;5140915;27;20042;-42
2022/05/12 06:16:29;;;;;;;20.00;7.57;;;;;;;;;;5137804;27;20128;-45
2022/05/12 06:18:54;;;;;;;16.15;10.40;;;;;;;;;;5136591;27;20126;-44
2022/05/12 06:21:19;;;;;;;23.40;11.07;;;;;;;;;;5140503;27;20102;-45
2022/05/12 06:23:46;;;;;;;10.85;9.20;;;;;;;;;;5140072;27;20046;-46
2022/05/12 06:26:14;;;;;;;42.22;15.90;;;;;;;;;;5140568;27;20348;-44
2022/05/12 06:28:41;;;;;;;22.70;11.50;;;;;;;;;;5142401;27;20038;-49
2022/05/12 06:31:07;;;;;;;15.50;9.23;;;;;;;;;;5139792;27;20034;-46
2022/05/12 06:33:33;;;;;;;25.98;18.35;;;;;;;;;;5134754;27;20134;-46
2022/05/12 06:36:01;;;;;;;19.42;15.93;;;;;;;;;;5139504;27;20141;-47
2022/05/12 06:38:26;;;;;;;23.15;19.38;;;;;;;;;;5138677;27;20051;-48
2022/05/12 06:40:53;;;;;;;25.23;22.33;;;;;;;;;;5140986;27;20039;-44
2022/05/12 06:43:18;;;;;;;33.25;24.95;;;;;;;;;;5141007;27;20030;-46
2022/05/12 06:45:44;;;;;;;34.30;18.17;;;;;;;;;;5143405;27;20039;-41
2022/05/12 06:48:09;;;;;;;7.97;7.18;;;;;;;;;;5138711;27;20123;-44
2022/05/12 06:50:35;;;;;;;6.88;6.03;;;;;;;;;;5138608;27;20113;-43
2022/05/12 06:53:00;;;;;;;15.98;7.65;;;;;;;;;;5139382;27;20043;-43
2022/05/12 06:55:27;;;;;;;11.68;6.50;;;;;;;;;;5141400;27;20039;-44
2022/05/12 06:57:52;;;;;;;29.98;8.60;;;;;;;;;;5142569;27;20099;-44
2022/05/12 07:00:18;;;;;;;18.95;8.63;;;;;;;;;;5139392;27;20043;-44
2022/05/12 07:02:45;;;;;;;35.97;12.95;;;;;;;;;;5141167;27;20134;-41
2022/05/12 07:05:11;;;;;;;19.90;10.95;;;;;;;;;;5140322;27;20046;-44
2022/05/12 07:07:36;;;;;;;17.52;12.00;;;;;;;;;;5142131;27;20092;-44
2022/05/12 07:10:04;;;;;;;10.98;8.52;;;;;;;;;;5140805;27;20066;-40
2022/05/12 07:12:29;;;;;;;8.68;7.53;;;;;;;;;;5138707;27;20142;-42
2022/05/12 07:14:56;;;;;;;10.38;7.15;;;;;;;;;;5139620;27;20829;-41
2022/05/12 07:17:21;;;;;;;16.45;7.80;;;;;;;;;;5138045;27;20179;-40
2022/05/12 07:19:48;;;;;;;8.82;7.03;;;;;;;;;;5138650;27;20054;-43
2022/05/12 07:27:41;;;;;;;6.93;4.97;;;;;;;;;;5136884;27;20045;-41
2022/05/12 07:30:07;;;;;;;13.30;4.68;;;;;;;;;;5138532;27;20046;-48
2022/05/12 07:32:32;;;;;;;4.85;3.90;;;;;;;;;;5142031;27;20035;-45
2022/05/12 07:34:57;;;;;;;10.57;5.97;;;;;;;;;;5139138;27;20129;-49
2022/05/12 07:37:23;;;;;;;12.38;4.78;;;;;;;;;;5141759;27;20038;-44
2022/05/12 07:39:48;;;;;;;2.55;1.95;;;;;;;;;;5138246;27;20445;-43
2022/05/12 07:42:13;;;;;;;4.93;3.00;;;;;;;;;;5136607;27;20051;-46
2022/05/12 07:44:40;;;;;;;4.50;2.70;;;;;;;;;;5136525;27;20127;-41
2022/05/12 07:47:06;;;;;;;6.05;4.60;;;;;;;;;;5139029;27;20146;-42
2022/05/12 07:49:35;;;;;;;10.43;5.95;;;;;;;;;;5139868;27;20038;-43
2022/05/12 07:52:01;;;;;;;11.32;6.93;;;;;;;;;;5137365;27;20105;-42
2022/05/12 07:54:26;;;;;;;15.55;2.70;;;;;;;;;;5140268;27;20046;-44
2022/05/12 07:56:51;;;;;;;11.25;3.00;;;;;;;;;;5137658;27;20447;-42
2022/05/12 07:59:17;;;;;;;7.63;3.55;;;;;;;;;;5138065;27;20360;-42
2022/05/12 08:01:43;;;;;;;7.60;3.53;;;;;;;;;;5139406;27;20050;-47
2022/05/12 08:04:08;;;;;;;6.55;2.47;;;;;;;;;;5139734;27;20042;-43
2022/05/12 08:06:33;;;;;;;3.17;2.40;;;;;;;;;;5137072;27;20046;-42
2022/05/12 08:08:59;;;;;;;11.10;4.10;;;;;;;;;;5140103;27;20500;-41
2022/05/12 08:11:24;;;;;;;9.57;4.13;;;;;;;;;;5139417;27;20107;-46
2022/05/12 08:13:51;;;;;;;13.70;10.25;;;;;;;;;;5136550;27;20149;-43
2022/05/12 08:16:18;;;;;;;3.95;3.22;;;;;;;;;;5141442;27;20187;-47
2022/05/12 08:18:45;;;;;;;14.88;5.05;;;;;;;;;;5134752;27;20050;-44
2022/05/12 08:21:11;;;;;;;4.53;2.35;;;;;;;;;;5138084;27;20126;-45
2022/05/12 08:23:36;;;;;;;11.52;2.95;;;;;;;;;;5137730;27;20190;-42
2022/05/12 08:26:02;;;;;;;5.28;2.42;;;;;;;;;;5137287;27;20039;-45
2022/05/12 08:28:27;;;;;;;2.50;1.73;;;;;;;;;;5138404;27;20035;-43
2022/05/12 08:30:53;;;;;;;5.15;3.08;;;;;;;;;;5139108;27;20042;-47
2022/05/12 08:33:19;;;;;;;7.45;2.28;;;;;;;;;;5138613;27;20047;-61
2022/05/12 08:35:44;;;;;;;3.42;2.38;;;;;;;;;;5136058;27;20103;-62
2022/05/12 08:38:11;;;;;;;7.57;2.75;;;;;;;;;;5138503;27;20046;-62
2022/05/12 08:41:14;;;;;;;9.40;2.33;;;;;;;;;;5136789;27;20109;-62
2022/05/12 08:43:51;;;;;;;3.65;2.67;;;;;;;;;;5068797;28;20128;-61
2022/05/12 08:46:37;;;;;;;11.20;3.63;;;;;;;;;;5051608;28;20040;-61
2022/05/12 08:49:11;;;;;;;5.47;2.28;;;;;;;;;;5114752;27;20034;-62
2022/05/12 08:51:36;;;;;;;11.13;3.53;;;;;;;;;;5137464;27;20071;-62
2022/05/12 08:54:04;;;;;;;2.67;1.65;;;;;;;;;;5138684;27;20533;-61
2022/05/12 08:56:29;;;;;;;7.28;3.60;;;;;;;;;;5139841;27;20455;-62
2022/05/12 08:58:56;;;;;;;3.40;2.17;;;;;;;;;;5143466;27;20558;-61
2022/05/12 09:01:22;;;;;;;10.75;2.30;;;;;;;;;;5143053;27;20042;-62
2022/05/12 09:03:59;;;;;;;6.47;3.72;;;;;;;;;;5142030;27;20423;-61
2022/05/12 09:06:38;;;;;;;9.15;2.05;;;;;;;;;;5142578;27;20085;-61
2022/05/12 09:09:03;;;;;;;3.45;2.10;;;;;;;;;;5139516;27;20031;-70
2022/05/12 09:11:47;;;;;;;5.50;3.78;;;;;;;;;;5142941;27;20121;-73
2022/05/12 09:14:17;;;;;;;12.30;6.70;;;;;;;;;;5141571;27;20281;-67
2022/05/12 09:16:43;;;;;;;11.30;4.72;;;;;;;;;;5138917;27;20121;-65
2022/05/12 09:19:11;;;;;;;16.33;6.68;;;;;;;;;;5140543;27;20472;-61
2022/05/12 09:21:37;;;;;;;5.30;3.38;;;;;;;;;;5140286;27;20519;-62
2022/05/12 09:24:07;;;;;;;6.55;4.72;;;;;;;;;;5140233;27;20051;-62
2022/05/12 09:26:32;;;;;;;7.75;4.70;;;;;;;;;;5142208;27;20077;-62
2022/05/12 09:29:10;;;;;;;6.72;4.90;;;;;;;;;;5140034;27;20480;-60
2022/05/12 09:31:36;;;;;;;7.00;4.15;;;;;;;;;;5136731;27;20115;-62
2022/05/12 09:34:16;;;;;;;5.45;4.40;;;;;;;;;;5139128;27;20043;-62
2022/05/12 09:36:41;;;;;;;4.63;3.78;;;;;;;;;;5143428;27;20287;-62
2022/05/12 09:39:07;;;;;;;4.47;3.78;;;;;;;;;;5126580;27;20459;-62
2022/05/12 09:41:42;;;;;;;5.53;3.22;;;;;;;;;;5138996;27;20122;-62
2022/05/12 09:44:17;;;;;;;10.48;4.07;;;;;;;;;;5139975;27;20099;-70
2022/05/12 09:46:54;;;;;;;5.43;3.63;;;;;;;;;;5145139;27;20051;-69
2022/05/12 09:49:21;;;;;;;12.27;3.22;;;;;;;;;;5141316;27;20057;-66
2022/05/12 09:51:46;;;;;;;14.68;3.53;;;;;;;;;;5141638;27;20051;-67
2022/05/12 09:54:23;;;;;;;6.97;3.22;;;;;;;;;;5140127;27;20039;-69
2022/05/12 09:57:15;;;;;;;8.80;2.70;;;;;;;;;;5141987;27;20053;-68
2022/05/12 09:59:42;;;;;;;6.22;3.20;;;;;;;;;;5136217;27;20047;-68
2022/05/12 10:08:00;;;;;;;4.18;3.10;;;;;;;;;;5136831;27;19922;-66
2022/05/12 10:10:27;;;;;;;10.65;4.18;;;;;;;;;;5134872;27;20043;-66
2022/05/12 10:12:57;;;;;;;3.45;2.45;;;;;;;;;;5138541;27;20587;-66
2022/05/12 10:15:23;;;;;;;;;;;;;;;;;;5137122;27;20046;-65
2022/05/12 10:17:50;;;;;;;4.33;3.17;;;;;;;;;;5136392;27;19922;-66
2022/05/12 10:20:20;;;;;;;3.05;1.48;;;;;;;;;;5136947;27;20267;-67
2022/05/12 10:22:54;;;;;;;7.75;2.78;;;;;;;;;;5140511;27;20506;-67
2022/05/12 10:25:20;;;;;;;7.53;2.50;;;;;;;;;;5136216;27;20547;-67
2022/05/12 10:27:49;;;;;;;2.90;1.55;;;;;;;;;;5136674;27;20154;-67
2022/05/12 10:30:14;;;;;;;6.97;3.85;;;;;;;;;;5136392;27;20050;-67
2022/05/12 10:32:43;;;;;;;13.52;3.38;;;;;;;;;;5135323;27;20043;-67
2022/05/12 10:35:28;;;;;;;3.03;1.73;;;;;;;;;;5134752;27;20066;-67
2022/05/12 10:37:57;;;;;;;4.53;2.30;;;;;;;;;;5133254;27;20043;-67
2022/05/12 10:40:26;;;;;;;5.20;2.58;;;;;;;;;;5137366;27;20042;-67
2022/05/12 10:42:57;;;;;;;4.18;2.80;;;;;;;;;;5136014;27;20146;-67
2022/05/12 10:45:24;;;;;;;3.38;1.55;;;;;;;;;;5138902;27;20047;-67
2022/05/12 10:48:04;;;;;;;8.90;2.70;;;;;;;;;;5137632;27;20053;-66
2022/05/12 10:50:33;;;;;;;7.03;2.75;;;;;;;;;;5136230;27;20047;-67
2022/05/12 10:53:11;;;;;;;5.53;1.98;;;;;;;;;;5136029;27;20134;-67
2022/05/12 10:55:43;;;;;;;6.95;2.35;;;;;;;;;;5136856;27;20035;-67
2022/05/12 10:58:19;;;;;;;9.27;2.58;;;;;;;;;;5137529;27;20043;-66
2022/05/12 11:00:53;;;;;;;5.15;1.73;;;;;;;;;;5133652;27;20074;-67
2022/05/12 11:03:29;;;;;;;3.63;1.98;;;;;;;;;;5133594;27;20047;-68
2022/05/12 11:05:56;;;;;;;22.80;3.15;;;;;;;;;;5136122;27;20126;-66
2022/05/12 11:08:27;;;;;;;7.82;2.33;;;;;;;;;;5136981;27;20402;-64
2022/05/12 11:11:08;;;;;;;2.28;1.98;;;;;;;;;;5136226;27;20147;-64
2022/05/12 11:13:38;;;;;;;11.45;2.10;;;;;;;;;;5136757;27;20596;-65
2022/05/12 11:16:09;;;;;;;19.23;4.07;;;;;;;;;;5136383;27;20051;-66
2022/05/12 11:18:41;;;;;;;6.45;2.47;;;;;;;;;;5135530;27;20273;-67
2022/05/12 11:21:15;;;;;;;3.97;2.45;;;;;;;;;;5139722;27;20039;-68
2022/05/12 11:23:46;;;;;;;6.72;1.90;;;;;;;;;;5136817;27;20051;-66
2022/05/12 11:26:31;;;;;;;6.70;1.80;;;;;;;;;;5135478;27;20081;-67
2022/05/12 11:31:48;;;;;;;9.30;1.42;;;;;;;;;;5135078;27;20045;-66
2022/05/12 11:34:15;;;;;;;6.75;2.33;;;;;;;;;;5140291;27;20080;-66
2022/05/12 11:36:42;;;;;;;4.15;1.73;;;;;;;;;;5140324;27;20138;-65
2022/05/12 11:39:20;;;;;;;9.20;2.55;;;;;;;;;;5141361;27;20046;-66
2022/05/12 11:41:46;;;;;;;7.40;2.70;;;;;;;;;;5142516;27;20060;-64
2022/05/12 11:44:27;;;;;;;9.38;1.83;;;;;;;;;;5142522;27;20042;-66
2022/05/12 11:47:10;;;;;;;7.07;2.45;;;;;;;;;;5141582;27;20503;-65
2022/05/12 11:49:40;;;;;;;9.25;2.10;;;;;;;;;;5139638;27;20498;-65
2022/05/12 11:52:12;;;;;;;3.63;2.28;;;;;;;;;;5138468;27;20511;-66
2022/05/12 11:54:40;;;;;;;3.40;1.85;;;;;;;;;;5137192;27;20051;-66
2022/05/12 11:57:20;;;;;;;5.50;2.42;;;;;;;;;;5142535;27;20047;-66
2022/05/12 11:59:47;;;;;;;7.13;2.75;;;;;;;;;;5139683;27;20054;-64
2022/05/12 12:02:27;;;;;;;4.65;2.88;;;;;;;;;;5140417;27;20434;-65
2022/05/12 12:04:53;;;;;;;4.70;2.30;;;;;;;;;;5136186;27;20402;-62
2022/05/12 12:07:31;;;;;;;1.42;1.08;;;;;;;;;;5134739;27;20043;-63
2022/05/12 12:10:15;;;;;;;4.70;2.05;;;;;;;;;;5138720;27;20072;-62
2022/05/12 12:12:40;;;;;;;1.80;1.20;;;;;;;;;;5140735;27;20047;-63
2022/05/12 12:15:28;;;;;;;11.15;2.17;;;;;;;;;;5138807;27;20057;-66
2022/05/12 12:17:54;;;;;;;14.18;3.50;;;;;;;;;;5100096;27;20039;-66
2022/05/12 12:20:28;;;;;;;3.08;2.13;;;;;;;;;;5138146;27;20081;-66
2022/05/12 12:22:54;;;;;;;5.05;3.10;;;;;;;;;;5136636;27;20039;-66
2022/05/12 12:25:20;;;;;;;53.83;10.93;;;;;;;;;;5136564;27;20474;-66
2022/05/12 12:28:01;;;;;;;6.68;1.42;;;;;;;;;;5135501;27;20034;-66
2022/05/12 12:30:37;;;;;;;3.15;1.90;;;;;;;;;;5139107;27;20137;-65
2022/05/12 12:33:23;;;;;;;5.05;3.15;;;;;;;;;;5137770;27;20038;-66
2022/05/12 12:35:56;;;;;;;8.02;2.10;;;;;;;;;;5141447;27;20602;-66
2022/05/12 12:38:45;;;;;;;7.13;2.97;;;;;;;;;;5140938;27;20711;-65
2022/05/12 12:41:11;;;;;;;16.25;1.83;;;;;;;;;;5102477;27;20134;-66
2022/05/12 12:43:38;;;;;;;2.47;1.95;;;;;;;;;;5143785;27;20038;-66
2022/05/12 12:46:10;;;;;;;11.55;3.58;;;;;;;;;;5139181;27;20042;-67
2022/05/12 12:48:40;;;;;;;9.60;2.28;;;;;;;;;;5139806;27;20110;-66
2022/05/12 12:51:05;;;;;;;9.70;1.50;;;;;;;;;;5142274;27;20045;-66
2022/05/12 12:56:30;;;;;;;4.30;3.22;;;;;;;;;;5141066;27;20111;-66
2022/05/12 12:58:56;;;;;;;4.85;2.47;;;;;;;;;;5144283;27;20672;-66
2022/05/12 13:01:21;;;;;;;11.75;2.65;;;;;;;;;;5142052;27;20031;-63
2022/05/12 13:03:49;;;;;;;4.32;1.95;;;;;;;;;;5138040;27;20640;-64
2022/05/12 13:06:16;;;;;;;4.82;1.88;;;;;;;;;;5141286;27;20038;-66
2022/05/12 13:08:42;;;;;;;4.97;2.33;;;;;;;;;;5144002;27;20270;-66
2022/05/12 13:11:08;;;;;;;5.55;1.83;;;;;;;;;;5142782;27;20521;-65
2022/05/12 13:13:46;;;;;;;7.88;2.40;;;;;;;;;;5139303;27;20411;-65
2022/05/12 13:16:14;;;;;;;12.50;4.03;;;;;;;;;;5141009;27;20132;-65
2022/05/12 13:18:45;;;;;;;7.47;3.15;;;;;;;;;;5140377;27;20090;-66
2022/05/12 13:21:10;;;;;;;;;;;;;;;;;;5140998;27;20130;-66
2022/05/12 13:23:36;;;;;;;5.55;3.25;;;;;;;;;;5142046;27;20343;-65
2022/05/12 13:26:04;;;;;;;12.95;3.10;;;;;;;;;;5139051;27;20038;-65
2022/05/12 13:28:31;;;;;;;7.68;4.63;;;;;;;;;;5140775;27;20246;-64
2022/05/12 13:31:24;;;;;;;11.20;5.28;;;;;;;;;;5141289;27;20066;-65
2022/05/12 13:34:00;;;;;;;24.25;13.05;;;;;;;;;;5142491;27;20161;-65
2022/05/12 13:36:29;;;;;;;13.85;6.68;;;;;;;;;;5139520;27;20095;-63
2022/05/12 13:38:54;;;;;;;13.32;7.18;;;;;;;;;;5141262;27;20043;-63
2022/05/12 13:41:27;;;;;;;17.02;8.48;;;;;;;;;;5138612;27;20039;-64
2022/05/12 13:43:59;;;;;;;9.70;5.75;;;;;;;;;;5142468;27;20055;-61
2022/05/12 13:46:26;;;;;;;13.35;9.55;;;;;;;;;;5140151;27;20057;-63
2022/05/12 13:48:51;;;;;;;11.80;6.82;;;;;;;;;;5139484;27;20067;-64
2022/05/12 13:51:35;;;;;;;14.45;9.40;;;;;;;;;;5139774;27;20101;-62
2022/05/12 13:54:08;;;;;;;13.07;7.93;;;;;;;;;;5141362;27;20140;-63
2022/05/12 13:56:33;;;;;;;12.50;7.03;;;;;;;;;;5141351;27;20070;-65
2022/05/12 13:59:01;;;;;;;7.88;5.05;;;;;;;;;;5140398;27;20490;-65
2022/05/12 14:01:31;;;;;;;16.73;6.30;;;;;;;;;;5139549;27;20569;-65
2022/05/12 14:04:17;;;;;;;10.50;7.20;;;;;;;;;;5138869;27;20053;-66
2022/05/12 14:06:45;;;;;;;8.70;6.57;;;;;;;;;;5142027;27;20298;-65
2022/05/12 14:09:19;;;;;;;9.27;4.03;;;;;;;;;;5140052;27;20035;-67
2022/05/12 14:11:57;;;;;;;17.88;6.80;;;;;;;;;;5139733;27;20070;-66
2022/05/12 14:19:50;;;;;;;9.02;6.00;;;;;;;;;;5142978;27;20102;-66
2022/05/12 14:22:17;;;;;;;8.07;4.50;;;;;;;;;;5139539;27;20042;-67
2022/05/12 14:24:45;;;;;;;19.60;5.25;;;;;;;;;;5135114;27;20035;-67
2022/05/12 14:27:11;;;;;;;11.75;4.22;;;;;;;;;;5141340;27;20554;-67
2022/05/12 14:29:37;;;;;;;8.73;4.60;;;;;;;;;;5140301;27;20225;-69
2022/05/12 14:32:02;;;;;;;8.00;4.45;;;;;;;;;;5139677;27;20464;-69
2022/05/12 14:34:28;;;;;;;11.52;4.35;;;;;;;;;;5139690;27;20086;-67
2022/05/12 14:36:55;;;;;;;9.48;4.38;;;;;;;;;;5140478;27;20031;-72
2022/05/12 14:39:21;;;;;;;7.47;4.07;;;;;;;;;;5139910;27;20069;-73
2022/05/12 14:41:46;;;;;;;9.88;6.30;;;;;;;;;;5119538;27;20552;-50
2022/05/12 14:44:12;;;;;;;30.05;6.20;;;;;;;;;;5139060;27;20043;-67
2022/05/12 14:46:39;;;;;;;17.25;5.15;;;;;;;;;;5142868;27;20035;-68
2022/05/12 14:49:06;;;;;;;5.07;3.58;;;;;;;;;;5139349;27;20042;-69
2022/05/12 14:51:31;;;;;;;6.90;4.03;;;;;;;;;;5141308;27;20043;-67
2022/05/12 14:53:57;;;;;;;14.65;3.42;;;;;;;;;;5142160;27;20058;-64
2022/05/12 14:56:22;;;;;;;11.30;4.28;;;;;;;;;;5140670;27;20506;-65
2022/05/12 14:58:47;;;;;;;6.65;3.78;;;;;;;;;;5141521;27;20056;-66
2022/05/12 15:01:13;;;;;;;9.65;4.05;;;;;;;;;;5140476;27;20050;-67
2022/05/12 15:03:40;;;;;;;6.60;3.47;;;;;;;;;;5140847;27;20134;-66
2022/05/12 15:06:07;;;;;;;6.80;3.80;;;;;;;;;;5139656;27;20111;-66
2022/05/12 15:08:32;;;;;;;7.78;2.97;;;;;;;;;;5139531;27;20543;-66
2022/05/12 15:10:58;;;;;;;8.40;3.42;;;;;;;;;;5140023;27;20043;-67